createdAt,value
2019-01-02T00:03:05.094Z,54.06
2019-01-02T00:07:22.977Z,54.31
2019-01-02T00:11:41.032Z,52.75
2019-01-02T00:16:06.082Z,51.05
2019-01-02T00:20:30.710Z,51.72
2019-01-02T00:29:31.971Z,52.09
2019-01-02T00:33:50.245Z,52.54
2019-01-02T00:42:52.435Z,54.62
2019-01-02T00:47:17.470Z,52.13
2019-01-02T00:51:35.079Z,53.45
2019-01-02T01:00:37.403Z,44.48
2019-01-02T01:04:55.221Z,63.74
2019-01-02T01:09:20.436Z,54.09
2019-01-02T01:13:36.333Z,50.81
2019-01-02T01:18:01.760Z,47.29
2019-01-02T01:22:30.240Z,58.90
2019-01-02T01:31:32.045Z,58.85
2019-01-02T01:35:49.819Z,41.06
2019-01-02T01:40:14.829Z,50.75
2019-01-02T01:44:32.765Z,43.22
2019-01-02T01:48:58.053Z,43.40
2019-01-02T01:53:17.551Z,57.47
2019-01-02T02:02:19.071Z,59.18
2019-01-02T02:06:34.960Z,57.59
2019-01-02T02:10:52.980Z,54.76
2019-01-02T02:15:37.390Z,43.36
2019-01-02T02:19:55.531Z,42.20
2019-01-02T02:24:21.017Z,41.10
2019-01-02T02:28:39.309Z,40.23
2019-01-02T02:33:04.421Z,58.41
2019-01-02T02:37:20.431Z,40.76
2019-01-02T02:50:58.867Z,45.55
2019-01-02T02:55:27.064Z,45.60
2019-01-02T02:59:52.097Z,55.26
2019-01-02T03:04:09.540Z,47.42
2019-01-02T03:08:34.856Z,34.82
2019-01-02T03:12:52.547Z,54.54
2019-01-02T03:17:17.886Z,49.55
2019-01-02T03:21:56.841Z,48.13
2019-01-02T03:26:22.056Z,37.66
2019-01-02T03:30:38.145Z,41.54
2019-01-02T03:34:58.053Z,37.38
2019-01-02T03:39:23.085Z,40.76
2019-01-02T03:43:40.573Z,48.98
2019-01-02T03:48:05.693Z,48.16
2019-01-02T03:52:23.358Z,40.47
2019-01-02T03:56:41.312Z,35.64
2019-01-02T04:01:06.408Z,42.73
2019-01-02T04:05:25.142Z,52.83
2019-01-02T04:09:42.697Z,46.47
2019-01-02T04:14:00.364Z,34.48
2019-01-02T04:18:25.426Z,47.99
2019-01-02T04:22:43.248Z,40.85
2019-01-02T04:27:00.842Z,43.71
2019-01-02T04:35:52.690Z,43.64
2019-01-02T04:40:11.313Z,45.15
2019-01-02T04:44:36.326Z,46.62
2019-01-02T04:48:53.843Z,50.13
2019-01-02T04:53:11.838Z,46.00
2019-01-02T04:57:36.856Z,47.77
2019-01-02T05:01:54.620Z,46.11
2019-01-02T05:06:19.646Z,45.89
2019-01-02T05:10:38.967Z,46.14
2019-01-02T05:15:15.140Z,46.35
2019-01-02T05:19:40.145Z,48.61
2019-01-02T05:23:58.304Z,48.66
2019-01-02T05:28:23.363Z,46.63
2019-01-02T05:32:40.950Z,44.90
2019-01-02T05:41:42.406Z,47.14
2019-01-02T05:46:00.586Z,49.18
2019-01-02T05:50:19.310Z,45.29
2019-01-02T05:54:44.336Z,43.78
2019-01-02T05:59:01.990Z,44.10
2019-01-02T06:03:27.076Z,45.04
2019-01-02T06:07:45.350Z,45.00
2019-01-02T06:12:03.093Z,45.00
2019-01-02T06:16:20.843Z,47.30
2019-01-02T06:20:36.770Z,47.07
2019-01-02T06:25:01.805Z,45.90
2019-01-02T06:29:19.829Z,43.09
2019-01-02T06:33:44.899Z,44.27
2019-01-02T06:38:02.557Z,43.09
2019-01-02T06:42:27.579Z,44.20
2019-01-02T06:46:45.656Z,43.60
2019-01-02T06:51:10.687Z,43.72
2019-01-02T06:55:28.266Z,43.54
2019-01-02T07:04:29.545Z,44.92
2019-01-02T07:08:47.804Z,44.45
2019-01-02T07:13:05.323Z,44.55
2019-01-02T07:17:23.189Z,44.07
2019-01-02T07:21:49.211Z,43.87
2019-01-02T07:26:07.413Z,43.50
2019-01-02T07:30:25.416Z,44.05
2019-01-02T07:35:29.019Z,44.11
2019-01-02T07:40:06.188Z,44.44
2019-01-02T07:45:09.787Z,43.17
2019-01-02T07:49:46.975Z,43.70
2019-01-02T07:54:32.849Z,43.12
2019-01-02T07:58:51.997Z,43.45
2019-01-02T08:03:37.802Z,45.58
2019-01-02T08:08:00.557Z,43.26
2019-01-02T08:17:38.266Z,43.43
2019-01-02T08:21:58.009Z,45.38
2019-01-02T08:26:46.539Z,42.97
2019-01-02T08:31:23.804Z,42.61
2019-01-02T08:36:27.408Z,42.59
2019-01-02T08:41:04.873Z,42.26
2019-01-02T08:45:50.739Z,43.25
2019-01-02T08:55:53.845Z,43.47
2019-01-02T09:00:17.663Z,43.95
2019-01-02T09:20:13.489Z,45.01
2019-01-02T09:29:50.679Z,42.77
2019-01-02T10:25:59.432Z,48.11
2019-01-02T10:55:22.675Z,46.92
2019-01-02T11:53:51.693Z,46.36
2019-01-02T11:58:16.730Z,45.54
2019-01-02T12:02:34.817Z,39.96
2019-01-02T12:06:59.924Z,32.72
2019-01-02T12:11:21.646Z,30.66
2019-01-02T12:15:46.681Z,29.07
2019-01-02T12:20:04.683Z,28.42
2019-01-02T12:24:29.692Z,28.88
2019-01-02T12:28:47.800Z,29.73
2019-01-02T12:33:12.852Z,27.21
2019-01-02T12:37:32.431Z,28.06
2019-01-02T12:41:57.517Z,31.43
2019-01-02T12:46:15.204Z,28.80
2019-01-02T12:56:16.707Z,31.76
2019-01-02T13:00:39.156Z,36.74
2019-01-02T13:05:01.347Z,39.21
2019-01-02T13:09:38.439Z,41.39
2019-01-02T13:30:54.458Z,49.89
2019-01-02T13:59:39.487Z,47.52
2019-01-02T14:08:03.418Z,45.97
2019-01-02T14:12:09.121Z,46.42
2019-01-02T14:16:14.907Z,46.31
2019-01-02T14:20:20.640Z,45.19
2019-01-02T14:24:26.339Z,45.74
2019-01-02T14:28:32.006Z,50.66
2019-01-02T14:32:37.722Z,49.62
2019-01-02T14:36:43.423Z,46.89
2019-01-02T14:40:49.110Z,46.42
2019-01-02T14:44:54.787Z,49.04
2019-01-02T14:49:00.466Z,45.69
2019-01-02T14:53:06.294Z,46.62
2019-01-02T14:57:12.098Z,49.91
2019-01-02T15:01:18.263Z,48.09
2019-01-02T15:05:23.935Z,46.34
2019-01-02T15:09:29.632Z,45.66
2019-01-02T15:13:35.310Z,51.94
2019-01-02T15:17:41.004Z,47.02
2019-01-02T15:21:46.706Z,45.11
2019-01-02T15:25:52.366Z,46.94
2019-01-02T15:29:58.047Z,45.80
2019-01-02T15:34:03.811Z,43.31
2019-01-02T15:38:09.500Z,51.40
2019-01-02T15:42:16.135Z,43.97
2019-01-02T15:46:21.869Z,47.95
2019-01-02T15:50:27.566Z,47.65
2019-01-02T15:54:33.270Z,45.88
2019-01-02T15:58:39.015Z,45.00
2019-01-02T16:02:44.699Z,49.85
2019-01-02T16:06:50.374Z,47.08
2019-01-02T16:10:56.059Z,46.28
2019-01-02T16:15:01.758Z,44.72
2019-01-02T16:19:08.429Z,48.69
2019-01-02T16:23:14.161Z,50.46
2019-01-02T16:27:19.875Z,45.80
2019-01-02T16:31:25.650Z,56.37
2019-01-02T16:35:31.338Z,54.70
2019-01-02T16:39:37.041Z,46.35
2019-01-02T16:43:42.814Z,41.15
2019-01-02T16:47:48.506Z,47.04
2019-01-02T16:51:54.364Z,46.45
2019-01-02T16:56:00.114Z,52.00
2019-01-02T17:00:09.990Z,45.26
2019-01-02T17:04:15.696Z,46.72
2019-01-02T17:08:21.391Z,46.59
2019-01-02T17:12:27.104Z,45.67
2019-01-02T17:16:32.913Z,45.78
2019-01-02T17:20:38.575Z,41.93
2019-01-02T17:24:44.284Z,42.12
2019-01-02T17:28:50.031Z,44.02
2019-01-02T17:32:55.731Z,54.25
2019-01-02T17:37:01.415Z,44.97
2019-01-02T17:41:07.122Z,42.05
2019-01-02T17:45:12.817Z,43.21
2019-01-02T17:49:18.496Z,46.02
2019-01-02T17:53:24.206Z,48.82
2019-01-02T17:57:29.891Z,45.52
2019-01-02T18:01:35.600Z,45.43
2019-01-02T18:05:42.628Z,43.38
2019-01-02T18:09:48.421Z,44.75
2019-01-02T18:13:54.102Z,42.80
2019-01-02T18:17:59.780Z,44.24
2019-01-02T18:22:05.562Z,47.01
2019-01-02T18:26:11.266Z,43.00
2019-01-02T18:30:16.954Z,44.95
2019-01-02T18:34:22.645Z,43.78
2019-01-02T18:38:28.302Z,41.97
2019-01-02T18:42:34.035Z,42.12
2019-01-02T18:46:39.804Z,42.85
2019-01-02T18:50:45.572Z,43.50
2019-01-02T18:54:51.241Z,45.77
2019-01-02T18:58:56.951Z,51.71
2019-01-02T19:03:02.715Z,46.33
2019-01-02T19:07:08.410Z,50.66
2019-01-02T19:11:14.124Z,54.97
2019-01-02T19:15:19.804Z,46.27
2019-01-02T19:19:25.510Z,47.83
2019-01-02T19:23:31.208Z,46.36
2019-01-02T19:27:36.982Z,49.59
2019-01-02T19:31:42.662Z,48.45
2019-01-02T19:35:48.351Z,48.84
2019-01-02T19:39:54.058Z,49.51
2019-01-02T19:43:59.755Z,48.36
2019-01-02T19:48:05.443Z,46.91
2019-01-02T19:52:11.114Z,41.85
2019-01-02T19:56:17.069Z,45.50
2019-01-02T20:00:22.782Z,52.18
2019-01-02T20:04:29.449Z,48.52
2019-01-02T20:08:35.181Z,43.92
2019-01-02T20:12:40.945Z,48.80
2019-01-02T20:16:46.672Z,52.87
2019-01-02T20:20:52.373Z,48.65
2019-01-02T20:24:58.070Z,47.43
2019-01-02T20:29:03.749Z,46.12
2019-01-02T20:33:09.448Z,47.69
2019-01-02T20:37:15.125Z,53.91
2019-01-02T20:41:20.891Z,45.60
2019-01-02T20:45:26.599Z,49.56
2019-01-02T20:49:33.275Z,53.99
2019-01-02T20:53:39.016Z,52.94
2019-01-02T20:57:44.716Z,54.18
2019-01-02T21:01:50.495Z,51.13
2019-01-02T21:05:56.241Z,49.07
2019-01-02T21:10:01.916Z,46.16
2019-01-02T21:14:07.581Z,41.73
2019-01-02T21:18:13.289Z,52.00
2019-01-02T21:22:19.070Z,47.65
2019-01-02T21:26:24.821Z,43.55
2019-01-02T21:30:30.515Z,42.18
2019-01-02T21:34:36.239Z,51.55
2019-01-02T21:38:42.036Z,45.40
2019-01-02T21:42:47.728Z,44.28
2019-01-02T21:46:53.422Z,38.62
2019-01-02T21:50:59.165Z,40.88
2019-01-02T21:55:49.896Z,43.08
2019-01-02T21:59:55.592Z,45.81
2019-01-02T22:04:01.338Z,48.59
2019-01-02T22:08:07.094Z,47.83
2019-01-02T22:12:12.790Z,52.45
2019-01-02T22:16:18.459Z,44.35
2019-01-02T22:20:24.177Z,50.80
2019-01-02T22:24:31.501Z,46.33
2019-01-02T22:28:37.173Z,48.34
2019-01-02T22:32:42.901Z,47.01
2019-01-02T22:36:48.578Z,52.96
2019-01-02T22:40:54.269Z,52.15
2019-01-02T22:45:00.035Z,54.29
2019-01-02T22:49:05.706Z,50.26
2019-01-02T22:53:11.394Z,52.13
2019-01-02T22:57:17.087Z,43.52
2019-01-02T23:01:24.646Z,43.61
2019-01-02T23:05:44.061Z,47.71
2019-01-02T23:09:57.124Z,45.31
2019-01-02T23:14:22.376Z,47.32
2019-01-02T23:18:29.776Z,48.27
2019-01-02T23:22:45.978Z,48.80
2019-01-02T23:27:02.206Z,54.35
2019-01-02T23:31:07.757Z,52.98
2019-01-02T23:35:13.429Z,50.08
2019-01-02T23:39:29.813Z,49.25
2019-01-02T23:43:42.992Z,45.35
2019-01-02T23:48:03.912Z,45.05
2019-01-02T23:52:22.961Z,46.46
2019-01-02T23:56:30.285Z,48.45
